sensor_id;sensor_type;location;lat;lon;timestamp;P1;durP1;ratioP1;P2;durP2;ratioP2
17985;SDS011;9118;48.122;11.546;2023-02-15T00:01:39;38.10;;;13.93;;
17985;SDS011;9118;48.122;11.546;2023-02-15T00:04:07;34.20;;;15.80;;
17985;SDS011;9118;48.122;11.546;2023-02-15T00:06:35;33.63;;;16.90;;
17985;SDS011;9118;48.122;11.546;2023-02-15T00:09:02;54.97;;;16.07;;
17985;SDS011;9118;48.122;11.546;2023-02-15T00:11:31;28.70;;;15.03;;
17985;SDS011;9118;48.122;11.546;2023-02-15T00:14:15;31.97;;;15.03;;
17985;SDS011;9118;48.122;11.546;2023-02-15T00:16:44;26.87;;;14.77;;
17985;SDS011;9118;48.122;11.546;2023-02-15T00:19:13;29.13;;;15.77;;
17985;SDS011;9118;48.122;11.546;2023-02-15T00:21:42;33.53;;;15.00;;
17985;SDS011;9118;48.122;11.546;2023-02-15T00:24:10;27.87;;;14.67;;
17985;SDS011;9118;48.122;11.546;2023-02-15T00:26:40;27.60;;;14.93;;
17985;SDS011;9118;48.122;11.546;2023-02-15T00:29:08;34.90;;;14.73;;
17985;SDS011;9118;48.122;11.546;2023-02-15T00:31:36;32.00;;;14.43;;
17985;SDS011;9118;48.122;11.546;2023-02-15T00:34:04;27.13;;;14.50;;
17985;SDS011;9118;48.122;11.546;2023-02-15T00:36:32;30.60;;;15.03;;
17985;SDS011;9118;48.122;11.546;2023-02-15T00:38:59;29.23;;;15.27;;
17985;SDS011;9118;48.122;11.546;2023-02-15T00:41:28;24.60;;;15.07;;
17985;SDS011;9118;48.122;11.546;2023-02-15T00:43:56;28.67;;;15.03;;
17985;SDS011;9118;48.122;11.546;2023-02-15T00:46:24;33.87;;;14.60;;
17985;SDS011;9118;48.122;11.546;2023-02-15T00:48:51;30.93;;;14.23;;
17985;SDS011;9118;48.122;11.546;2023-02-15T00:51:18;40.63;;;14.53;;
17985;SDS011;9118;48.122;11.546;2023-02-15T00:53:45;25.87;;;13.33;;
17985;SDS011;9118;48.122;11.546;2023-02-15T00:56:12;21.87;;;12.37;;
17985;SDS011;9118;48.122;11.546;2023-02-15T00:58:39;31.33;;;13.73;;
17985;SDS011;9118;48.122;11.546;2023-02-15T01:01:09;21.97;;;13.13;;
17985;SDS011;9118;48.122;11.546;2023-02-15T01:03:37;20.80;;;13.67;;
17985;SDS011;9118;48.122;11.546;2023-02-15T01:06:04;31.20;;;13.60;;
17985;SDS011;9118;48.122;11.546;2023-02-15T01:08:31;26.17;;;13.63;;
17985;SDS011;9118;48.122;11.546;2023-02-15T01:11:02;34.47;;;13.67;;
17985;SDS011;9118;48.122;11.546;2023-02-15T01:13:30;20.90;;;13.03;;
17985;SDS011;9118;48.122;11.546;2023-02-15T01:15:57;27.70;;;13.30;;
17985;SDS011;9118;48.122;11.546;2023-02-15T01:18:25;22.57;;;14.47;;
17985;SDS011;9118;48.122;11.546;2023-02-15T01:20:53;35.33;;;13.63;;
17985;SDS011;9118;48.122;11.546;2023-02-15T01:23:20;30.83;;;12.87;;
17985;SDS011;9118;48.122;11.546;2023-02-15T01:25:47;22.40;;;12.80;;
17985;SDS011;9118;48.122;11.546;2023-02-15T01:28:14;19.93;;;12.97;;
17985;SDS011;9118;48.122;11.546;2023-02-15T01:30:40;23.43;;;12.73;;
17985;SDS011;9118;48.122;11.546;2023-02-15T01:33:08;28.23;;;12.00;;
17985;SDS011;9118;48.122;11.546;2023-02-15T01:35:43;21.90;;;12.67;;
17985;SDS011;9118;48.122;11.546;2023-02-15T01:38:11;22.30;;;12.53;;
17985;SDS011;9118;48.122;11.546;2023-02-15T01:40:38;20.77;;;12.33;;
17985;SDS011;9118;48.122;11.546;2023-02-15T01:43:08;29.20;;;11.80;;
17985;SDS011;9118;48.122;11.546;2023-02-15T01:45:36;19.17;;;11.67;;
17985;SDS011;9118;48.122;11.546;2023-02-15T01:48:04;18.60;;;12.20;;
17985;SDS011;9118;48.122;11.546;2023-02-15T01:50:41;16.93;;;11.67;;
17985;SDS011;9118;48.122;11.546;2023-02-15T01:53:13;20.43;;;12.50;;
17985;SDS011;9118;48.122;11.546;2023-02-15T01:55:47;19.00;;;10.90;;
17985;SDS011;9118;48.122;11.546;2023-02-15T01:58:18;19.57;;;11.67;;
17985;SDS011;9118;48.122;11.546;2023-02-15T02:00:47;20.17;;;11.57;;
17985;SDS011;9118;48.122;11.546;2023-02-15T02:03:14;16.90;;;11.27;;
17985;SDS011;9118;48.122;11.546;2023-02-15T02:05:41;29.70;;;11.97;;
17985;SDS011;9118;48.122;11.546;2023-02-15T02:08:10;21.23;;;11.47;;
17985;SDS011;9118;48.122;11.546;2023-02-15T02:10:37;32.23;;;12.37;;
17985;SDS011;9118;48.122;11.546;2023-02-15T02:13:05;17.30;;;11.03;;
17985;SDS011;9118;48.122;11.546;2023-02-15T02:15:37;19.63;;;11.80;;
17985;SDS011;9118;48.122;11.546;2023-02-15T02:18:13;19.73;;;11.60;;
17985;SDS011;9118;48.122;11.546;2023-02-15T02:21:02;17.77;;;11.33;;
17985;SDS011;9118;48.122;11.546;2023-02-15T02:24:13;21.37;;;10.90;;
17985;SDS011;9118;48.122;11.546;2023-02-15T02:30:20;17.37;;;10.97;;
17985;SDS011;9118;48.122;11.546;2023-02-15T02:33:26;16.43;;;11.20;;
17985;SDS011;9118;48.122;11.546;2023-02-15T02:36:08;17.73;;;11.17;;
17985;SDS011;9118;48.122;11.546;2023-02-15T02:38:48;24.53;;;11.13;;
17985;SDS011;9118;48.122;11.546;2023-02-15T02:41:27;17.23;;;11.37;;
17985;SDS011;9118;48.122;11.546;2023-02-15T02:43:59;16.93;;;10.67;;
17985;SDS011;9118;48.122;11.546;2023-02-15T02:46:34;15.93;;;10.87;;
17985;SDS011;9118;48.122;11.546;2023-02-15T02:49:07;18.90;;;10.87;;
17985;SDS011;9118;48.122;11.546;2023-02-15T02:51:34;23.50;;;11.63;;
17985;SDS011;9118;48.122;11.546;2023-02-15T02:54:02;21.37;;;11.00;;
17985;SDS011;9118;48.122;11.546;2023-02-15T02:56:33;20.53;;;11.33;;
17985;SDS011;9118;48.122;11.546;2023-02-15T02:59:04;18.37;;;11.20;;
17985;SDS011;9118;48.122;11.546;2023-02-15T03:01:34;17.63;;;11.00;;
17985;SDS011;9118;48.122;11.546;2023-02-15T03:04:07;20.80;;;10.87;;
17985;SDS011;9118;48.122;11.546;2023-02-15T03:06:39;22.47;;;10.33;;
17985;SDS011;9118;48.122;11.546;2023-02-15T03:09:14;20.43;;;10.87;;
17985;SDS011;9118;48.122;11.546;2023-02-15T03:11:45;18.60;;;11.83;;
17985;SDS011;9118;48.122;11.546;2023-02-15T03:14:14;17.80;;;11.57;;
17985;SDS011;9118;48.122;11.546;2023-02-15T03:16:45;21.70;;;11.90;;
17985;SDS011;9118;48.122;11.546;2023-02-15T03:19:16;17.63;;;11.10;;
17985;SDS011;9118;48.122;11.546;2023-02-15T03:21:48;14.93;;;10.70;;
17985;SDS011;9118;48.122;11.546;2023-02-15T03:24:23;27.93;;;12.50;;
17985;SDS011;9118;48.122;11.546;2023-02-15T03:26:54;25.17;;;11.60;;
17985;SDS011;9118;48.122;11.546;2023-02-15T03:29:23;17.93;;;10.73;;
17985;SDS011;9118;48.122;11.546;2023-02-15T03:31:54;21.90;;;11.17;;
17985;SDS011;9118;48.122;11.546;2023-02-15T03:34:26;28.80;;;11.20;;
17985;SDS011;9118;48.122;11.546;2023-02-15T03:36:56;19.47;;;11.63;;
17985;SDS011;9118;48.122;11.546;2023-02-15T03:39:29;20.20;;;11.40;;
17985;SDS011;9118;48.122;11.546;2023-02-15T03:42:00;18.97;;;11.50;;
17985;SDS011;9118;48.122;11.546;2023-02-15T03:44:39;30.10;;;11.37;;
17985;SDS011;9118;48.122;11.546;2023-02-15T03:47:15;17.93;;;10.63;;
17985;SDS011;9118;48.122;11.546;2023-02-15T03:49:47;20.80;;;10.43;;
17985;SDS011;9118;48.122;11.546;2023-02-15T03:52:18;17.73;;;10.60;;
17985;SDS011;9118;48.122;11.546;2023-02-15T03:54:46;17.07;;;10.40;;
17985;SDS011;9118;48.122;11.546;2023-02-15T03:57:16;17.17;;;10.97;;
17985;SDS011;9118;48.122;11.546;2023-02-15T04:00:03;16.73;;;10.47;;
17985;SDS011;9118;48.122;11.546;2023-02-15T04:02:56;19.07;;;11.13;;
17985;SDS011;9118;48.122;11.546;2023-02-15T04:05:40;16.30;;;10.27;;
17985;SDS011;9118;48.122;11.546;2023-02-15T04:08:08;18.50;;;11.40;;
17985;SDS011;9118;48.122;11.546;2023-02-15T04:10:35;25.80;;;11.53;;
17985;SDS011;9118;48.122;11.546;2023-02-15T04:13:21;30.23;;;11.20;;
17985;SDS011;9118;48.122;11.546;2023-02-15T04:15:50;29.53;;;11.83;;
17985;SDS011;9118;48.122;11.546;2023-02-15T04:18:31;19.73;;;10.47;;
17985;SDS011;9118;48.122;11.546;2023-02-15T04:21:18;18.13;;;10.93;;
17985;SDS011;9118;48.122;11.546;2023-02-15T04:24:04;19.30;;;10.90;;
17985;SDS011;9118;48.122;11.546;2023-02-15T04:26:49;26.57;;;11.50;;
17985;SDS011;9118;48.122;11.546;2023-02-15T04:29:17;48.13;;;12.97;;
17985;SDS011;9118;48.122;11.546;2023-02-15T04:31:45;17.60;;;11.30;;
17985;SDS011;9118;48.122;11.546;2023-02-15T04:34:12;19.57;;;11.67;;
17985;SDS011;9118;48.122;11.546;2023-02-15T04:36:40;20.83;;;11.27;;
17985;SDS011;9118;48.122;11.546;2023-02-15T04:39:08;25.13;;;11.47;;
17985;SDS011;9118;48.122;11.546;2023-02-15T04:41:35;20.23;;;11.13;;
17985;SDS011;9118;48.122;11.546;2023-02-15T04:44:02;23.10;;;11.60;;
17985;SDS011;9118;48.122;11.546;2023-02-15T04:46:29;41.37;;;11.30;;
17985;SDS011;9118;48.122;11.546;2023-02-15T04:48:56;19.10;;;10.20;;
17985;SDS011;9118;48.122;11.546;2023-02-15T04:51:24;18.17;;;10.70;;
17985;SDS011;9118;48.122;11.546;2023-02-15T04:53:52;19.43;;;10.97;;
17985;SDS011;9118;48.122;11.546;2023-02-15T04:56:19;17.17;;;11.07;;
17985;SDS011;9118;48.122;11.546;2023-02-15T04:58:47;18.87;;;11.40;;
17985;SDS011;9118;48.122;11.546;2023-02-15T05:01:14;17.07;;;10.80;;
17985;SDS011;9118;48.122;11.546;2023-02-15T05:03:42;18.30;;;11.80;;
17985;SDS011;9118;48.122;11.546;2023-02-15T05:06:09;21.63;;;11.80;;
17985;SDS011;9118;48.122;11.546;2023-02-15T05:08:36;21.77;;;12.27;;
17985;SDS011;9118;48.122;11.546;2023-02-15T05:11:04;27.37;;;11.17;;
17985;SDS011;9118;48.122;11.546;2023-02-15T05:13:31;17.97;;;10.60;;
17985;SDS011;9118;48.122;11.546;2023-02-15T05:15:58;23.00;;;11.10;;
17985;SDS011;9118;48.122;11.546;2023-02-15T05:18:25;20.17;;;12.10;;
17985;SDS011;9118;48.122;11.546;2023-02-15T05:20:52;18.73;;;11.80;;
17985;SDS011;9118;48.122;11.546;2023-02-15T05:23:19;25.10;;;12.77;;
17985;SDS011;9118;48.122;11.546;2023-02-15T05:25:47;17.13;;;10.93;;
17985;SDS011;9118;48.122;11.546;2023-02-15T05:28:33;23.57;;;12.47;;
17985;SDS011;9118;48.122;11.546;2023-02-15T05:31:02;26.40;;;12.33;;
17985;SDS011;9118;48.122;11.546;2023-02-15T05:33:33;23.63;;;10.90;;
17985;SDS011;9118;48.122;11.546;2023-02-15T05:36:00;20.80;;;11.43;;
17985;SDS011;9118;48.122;11.546;2023-02-15T05:38:28;16.50;;;11.17;;
17985;SDS011;9118;48.122;11.546;2023-02-15T05:40:55;17.40;;;11.07;;
17985;SDS011;9118;48.122;11.546;2023-02-15T05:43:23;17.63;;;11.13;;
17985;SDS011;9118;48.122;11.546;2023-02-15T05:45:53;20.30;;;12.27;;
17985;SDS011;9118;48.122;11.546;2023-02-15T05:48:21;26.03;;;12.10;;
17985;SDS011;9118;48.122;11.546;2023-02-15T05:50:56;27.83;;;12.07;;
17985;SDS011;9118;48.122;11.546;2023-02-15T05:53:24;20.37;;;12.30;;
17985;SDS011;9118;48.122;11.546;2023-02-15T05:55:52;18.33;;;11.77;;
17985;SDS011;9118;48.122;11.546;2023-02-15T06:01:41;22.60;;;13.17;;
17985;SDS011;9118;48.122;11.546;2023-02-15T06:04:08;22.43;;;12.87;;
17985;SDS011;9118;48.122;11.546;2023-02-15T06:06:35;21.30;;;12.60;;
17985;SDS011;9118;48.122;11.546;2023-02-15T06:09:02;23.27;;;12.17;;
17985;SDS011;9118;48.122;11.546;2023-02-15T06:11:29;23.60;;;13.00;;
17985;SDS011;9118;48.122;11.546;2023-02-15T06:13:56;20.77;;;12.43;;
17985;SDS011;9118;48.122;11.546;2023-02-15T06:16:23;20.03;;;12.17;;
17985;SDS011;9118;48.122;11.546;2023-02-15T06:18:51;23.40;;;12.67;;
17985;SDS011;9118;48.122;11.546;2023-02-15T06:21:18;22.10;;;13.83;;
17985;SDS011;9118;48.122;11.546;2023-02-15T06:23:45;20.40;;;13.10;;
17985;SDS011;9118;48.122;11.546;2023-02-15T06:26:12;18.23;;;12.47;;
17985;SDS011;9118;48.122;11.546;2023-02-15T06:28:39;20.63;;;13.83;;
17985;SDS011;9118;48.122;11.546;2023-02-15T06:31:07;22.73;;;13.40;;
17985;SDS011;9118;48.122;11.546;2023-02-15T06:33:33;20.90;;;13.50;;
17985;SDS011;9118;48.122;11.546;2023-02-15T06:36:02;22.07;;;12.73;;
17985;SDS011;9118;48.122;11.546;2023-02-15T06:38:29;20.60;;;12.77;;
17985;SDS011;9118;48.122;11.546;2023-02-15T06:40:57;22.70;;;13.43;;
17985;SDS011;9118;48.122;11.546;2023-02-15T06:43:23;21.50;;;12.90;;
17985;SDS011;9118;48.122;11.546;2023-02-15T06:45:51;18.70;;;11.97;;
17985;SDS011;9118;48.122;11.546;2023-02-15T06:48:17;19.83;;;12.77;;
17985;SDS011;9118;48.122;11.546;2023-02-15T06:50:44;20.97;;;12.93;;
17985;SDS011;9118;48.122;11.546;2023-02-15T06:53:13;23.50;;;13.20;;
17985;SDS011;9118;48.122;11.546;2023-02-15T06:55:41;21.67;;;13.77;;
17985;SDS011;9118;48.122;11.546;2023-02-15T06:58:08;20.27;;;13.33;;
17985;SDS011;9118;48.122;11.546;2023-02-15T07:00:35;25.37;;;14.10;;
17985;SDS011;9118;48.122;11.546;2023-02-15T07:03:02;21.73;;;13.57;;
17985;SDS011;9118;48.122;11.546;2023-02-15T07:05:32;20.93;;;13.40;;
17985;SDS011;9118;48.122;11.546;2023-02-15T07:08:00;22.63;;;13.67;;
17985;SDS011;9118;48.122;11.546;2023-02-15T07:10:28;21.50;;;13.27;;
17985;SDS011;9118;48.122;11.546;2023-02-15T07:12:55;24.00;;;14.20;;
17985;SDS011;9118;48.122;11.546;2023-02-15T07:15:21;23.50;;;14.20;;
17985;SDS011;9118;48.122;11.546;2023-02-15T07:17:49;21.63;;;13.30;;
17985;SDS011;9118;48.122;11.546;2023-02-15T07:20:17;23.93;;;13.73;;
17985;SDS011;9118;48.122;11.546;2023-02-15T07:22:46;23.57;;;13.60;;
17985;SDS011;9118;48.122;11.546;2023-02-15T07:25:14;23.20;;;14.30;;
17985;SDS011;9118;48.122;11.546;2023-02-15T07:27:46;21.50;;;13.13;;
17985;SDS011;9118;48.122;11.546;2023-02-15T07:30:14;26.13;;;13.40;;
17985;SDS011;9118;48.122;11.546;2023-02-15T07:32:42;21.47;;;13.20;;
17985;SDS011;9118;48.122;11.546;2023-02-15T07:35:27;26.10;;;13.60;;
17985;SDS011;9118;48.122;11.546;2023-02-15T07:37:54;24.33;;;13.40;;
17985;SDS011;9118;48.122;11.546;2023-02-15T07:40:21;21.73;;;14.20;;
17985;SDS011;9118;48.122;11.546;2023-02-15T07:42:51;21.57;;;13.70;;
17985;SDS011;9118;48.122;11.546;2023-02-15T07:45:20;23.57;;;13.80;;
17985;SDS011;9118;48.122;11.546;2023-02-15T07:47:47;21.50;;;13.63;;
17985;SDS011;9118;48.122;11.546;2023-02-15T07:50:14;25.60;;;14.13;;
17985;SDS011;9118;48.122;11.546;2023-02-15T07:52:41;23.93;;;13.23;;
17985;SDS011;9118;48.122;11.546;2023-02-15T07:55:08;23.27;;;13.77;;
17985;SDS011;9118;48.122;11.546;2023-02-15T07:57:41;22.07;;;13.53;;
17985;SDS011;9118;48.122;11.546;2023-02-15T08:00:11;21.63;;;12.73;;
17985;SDS011;9118;48.122;11.546;2023-02-15T08:02:41;22.27;;;13.23;;
17985;SDS011;9118;48.122;11.546;2023-02-15T08:05:08;25.93;;;15.07;;
17985;SDS011;9118;48.122;11.546;2023-02-15T08:07:36;29.10;;;15.97;;
17985;SDS011;9118;48.122;11.546;2023-02-15T08:10:03;25.53;;;14.77;;
17985;SDS011;9118;48.122;11.546;2023-02-15T08:12:31;22.07;;;13.83;;
17985;SDS011;9118;48.122;11.546;2023-02-15T08:14:58;23.57;;;14.13;;
17985;SDS011;9118;48.122;11.546;2023-02-15T08:17:26;25.47;;;15.00;;
17985;SDS011;9118;48.122;11.546;2023-02-15T08:19:53;24.40;;;14.77;;
17985;SDS011;9118;48.122;11.546;2023-02-15T08:22:20;23.33;;;14.37;;
17985;SDS011;9118;48.122;11.546;2023-02-15T08:24:48;22.30;;;13.73;;
17985;SDS011;9118;48.122;11.546;2023-02-15T08:27:15;23.30;;;14.10;;
17985;SDS011;9118;48.122;11.546;2023-02-15T08:29:42;22.67;;;14.00;;
17985;SDS011;9118;48.122;11.546;2023-02-15T08:32:12;22.20;;;13.90;;
17985;SDS011;9118;48.122;11.546;2023-02-15T08:34:41;21.93;;;13.77;;
17985;SDS011;9118;48.122;11.546;2023-02-15T08:37:08;23.33;;;13.70;;
17985;SDS011;9118;48.122;11.546;2023-02-15T08:39:35;25.97;;;13.80;;
17985;SDS011;9118;48.122;11.546;2023-02-15T08:42:02;21.57;;;14.30;;
17985;SDS011;9118;48.122;11.546;2023-02-15T08:44:29;24.17;;;14.87;;
17985;SDS011;9118;48.122;11.546;2023-02-15T08:46:56;25.23;;;14.70;;
17985;SDS011;9118;48.122;11.546;2023-02-15T08:49:27;24.27;;;13.90;;
17985;SDS011;9118;48.122;11.546;2023-02-15T08:51:56;21.43;;;13.13;;
17985;SDS011;9118;48.122;11.546;2023-02-15T08:54:23;25.03;;;13.17;;
17985;SDS011;9118;48.122;11.546;2023-02-15T08:56:50;22.63;;;14.27;;
17985;SDS011;9118;48.122;11.546;2023-02-15T08:59:18;34.70;;;16.03;;
17985;SDS011;9118;48.122;11.546;2023-02-15T09:01:46;25.80;;;13.90;;
17985;SDS011;9118;48.122;11.546;2023-02-15T09:04:15;27.77;;;14.53;;
17985;SDS011;9118;48.122;11.546;2023-02-15T09:06:42;23.23;;;13.20;;
17985;SDS011;9118;48.122;11.546;2023-02-15T09:09:11;22.93;;;14.07;;
17985;SDS011;9118;48.122;11.546;2023-02-15T09:11:39;21.87;;;14.23;;
17985;SDS011;9118;48.122;11.546;2023-02-15T09:14:08;22.47;;;14.17;;
17985;SDS011;9118;48.122;11.546;2023-02-15T09:16:38;21.60;;;13.73;;
17985;SDS011;9118;48.122;11.546;2023-02-15T09:19:07;22.77;;;14.07;;
17985;SDS011;9118;48.122;11.546;2023-02-15T09:21:35;24.87;;;14.90;;
17985;SDS011;9118;48.122;11.546;2023-02-15T09:24:04;24.30;;;14.20;;
17985;SDS011;9118;48.122;11.546;2023-02-15T09:26:35;23.87;;;14.67;;
17985;SDS011;9118;48.122;11.546;2023-02-15T09:29:05;23.50;;;14.60;;
17985;SDS011;9118;48.122;11.546;2023-02-15T09:31:33;29.37;;;17.70;;
17985;SDS011;9118;48.122;11.546;2023-02-15T09:34:04;31.37;;;16.57;;
17985;SDS011;9118;48.122;11.546;2023-02-15T09:36:32;29.80;;;17.17;;
17985;SDS011;9118;48.122;11.546;2023-02-15T09:39:01;29.07;;;16.40;;
17985;SDS011;9118;48.122;11.546;2023-02-15T09:41:44;35.40;;;16.73;;
17985;SDS011;9118;48.122;11.546;2023-02-15T09:44:31;31.80;;;17.30;;
17985;SDS011;9118;48.122;11.546;2023-02-15T09:47:15;29.13;;;16.17;;
17985;SDS011;9118;48.122;11.546;2023-02-15T09:49:55;31.80;;;16.77;;
17985;SDS011;9118;48.122;11.546;2023-02-15T09:52:32;26.03;;;15.57;;
17985;SDS011;9118;48.122;11.546;2023-02-15T09:55:15;28.03;;;15.23;;
17985;SDS011;9118;48.122;11.546;2023-02-15T09:57:55;27.57;;;15.90;;
17985;SDS011;9118;48.122;11.546;2023-02-15T10:00:33;25.00;;;16.13;;
17985;SDS011;9118;48.122;11.546;2023-02-15T10:03:18;27.53;;;15.23;;
17985;SDS011;9118;48.122;11.546;2023-02-15T10:06:01;23.07;;;14.93;;
17985;SDS011;9118;48.122;11.546;2023-02-15T10:08:52;25.80;;;15.73;;
17985;SDS011;9118;48.122;11.546;2023-02-15T10:11:31;24.67;;;14.73;;
17985;SDS011;9118;48.122;11.546;2023-02-15T10:14:20;26.07;;;15.77;;
17985;SDS011;9118;48.122;11.546;2023-02-15T10:17:19;27.83;;;15.73;;
17985;SDS011;9118;48.122;11.546;2023-02-15T10:20:04;25.53;;;14.90;;
17985;SDS011;9118;48.122;11.546;2023-02-15T10:22:48;25.50;;;15.13;;
17985;SDS011;9118;48.122;11.546;2023-02-15T10:25:33;24.57;;;14.33;;
17985;SDS011;9118;48.122;11.546;2023-02-15T10:28:09;25.50;;;15.30;;
17985;SDS011;9118;48.122;11.546;2023-02-15T10:30:46;25.97;;;15.10;;
17985;SDS011;9118;48.122;11.546;2023-02-15T10:33:20;24.37;;;15.63;;
17985;SDS011;9118;48.122;11.546;2023-02-15T10:36:05;25.40;;;15.70;;
17985;SDS011;9118;48.122;11.546;2023-02-15T10:38:42;29.50;;;15.40;;
17985;SDS011;9118;48.122;11.546;2023-02-15T10:41:22;23.70;;;16.20;;
17985;SDS011;9118;48.122;11.546;2023-02-15T10:44:04;22.80;;;15.10;;
17985;SDS011;9118;48.122;11.546;2023-02-15T10:46:46;28.87;;;15.67;;
17985;SDS011;9118;48.122;11.546;2023-02-15T10:49:41;21.70;;;15.10;;
17985;SDS011;9118;48.122;11.546;2023-02-15T10:52:27;21.47;;;15.60;;
17985;SDS011;9118;48.122;11.546;2023-02-15T10:55:02;27.57;;;15.47;;
17985;SDS011;9118;48.122;11.546;2023-02-15T10:57:40;30.00;;;16.80;;
17985;SDS011;9118;48.122;11.546;2023-02-15T11:00:18;28.03;;;16.63;;
17985;SDS011;9118;48.122;11.546;2023-02-15T11:02:58;26.27;;;16.63;;
17985;SDS011;9118;48.122;11.546;2023-02-15T11:05:39;26.03;;;17.33;;
17985;SDS011;9118;48.122;11.546;2023-02-15T11:08:14;27.83;;;18.20;;
17985;SDS011;9118;48.122;11.546;2023-02-15T11:10:43;26.87;;;17.27;;
17985;SDS011;9118;48.122;11.546;2023-02-15T11:13:14;30.97;;;19.27;;
17985;SDS011;9118;48.122;11.546;2023-02-15T11:15:44;28.27;;;17.47;;
17985;SDS011;9118;48.122;11.546;2023-02-15T11:18:16;33.57;;;18.47;;
17985;SDS011;9118;48.122;11.546;2023-02-15T11:20:51;33.53;;;18.67;;
17985;SDS011;9118;48.122;11.546;2023-02-15T11:23:21;31.27;;;18.07;;
17985;SDS011;9118;48.122;11.546;2023-02-15T11:25:56;29.20;;;19.40;;
17985;SDS011;9118;48.122;11.546;2023-02-15T11:28:25;31.57;;;19.30;;
17985;SDS011;9118;48.122;11.546;2023-02-15T11:30:58;31.17;;;19.37;;
17985;SDS011;9118;48.122;11.546;2023-02-15T11:33:39;34.53;;;19.63;;
17985;SDS011;9118;48.122;11.546;2023-02-15T11:36:12;35.30;;;20.13;;
17985;SDS011;9118;48.122;11.546;2023-02-15T11:38:43;33.37;;;19.47;;
17985;SDS011;9118;48.122;11.546;2023-02-15T11:41:14;31.53;;;19.97;;
17985;SDS011;9118;48.122;11.546;2023-02-15T11:43:46;29.93;;;18.93;;
17985;SDS011;9118;48.122;11.546;2023-02-15T11:46:19;27.87;;;19.50;;
17985;SDS011;9118;48.122;11.546;2023-02-15T11:48:48;31.90;;;20.07;;
17985;SDS011;9118;48.122;11.546;2023-02-15T11:51:16;31.63;;;19.90;;
17985;SDS011;9118;48.122;11.546;2023-02-15T11:53:45;39.83;;;21.63;;
17985;SDS011;9118;48.122;11.546;2023-02-15T11:56:14;32.10;;;20.67;;
17985;SDS011;9118;48.122;11.546;2023-02-15T11:58:44;33.53;;;19.40;;
17985;SDS011;9118;48.122;11.546;2023-02-15T12:01:16;30.13;;;19.23;;
17985;SDS011;9118;48.122;11.546;2023-02-15T12:03:50;30.93;;;19.37;;
17985;SDS011;9118;48.122;11.546;2023-02-15T12:06:22;35.13;;;21.30;;
17985;SDS011;9118;48.122;11.546;2023-02-15T12:08:53;29.40;;;20.00;;
17985;SDS011;9118;48.122;11.546;2023-02-15T12:11:30;35.10;;;21.60;;
17985;SDS011;9118;48.122;11.546;2023-02-15T12:14:01;31.97;;;20.27;;
17985;SDS011;9118;48.122;11.546;2023-02-15T12:16:32;31.03;;;19.70;;
17985;SDS011;9118;48.122;11.546;2023-02-15T12:19:11;33.63;;;20.10;;
17985;SDS011;9118;48.122;11.546;2023-02-15T12:21:51;30.97;;;20.00;;
17985;SDS011;9118;48.122;11.546;2023-02-15T12:24:21;33.63;;;20.23;;
17985;SDS011;9118;48.122;11.546;2023-02-15T12:27:00;33.13;;;20.53;;
17985;SDS011;9118;48.122;11.546;2023-02-15T12:29:29;32.90;;;21.13;;
17985;SDS011;9118;48.122;11.546;2023-02-15T12:32:00;31.30;;;20.00;;
17985;SDS011;9118;48.122;11.546;2023-02-15T12:34:30;35.30;;;20.73;;
17985;SDS011;9118;48.122;11.546;2023-02-15T12:37:23;36.87;;;20.93;;
17985;SDS011;9118;48.122;11.546;2023-02-15T12:40:02;34.67;;;21.00;;
17985;SDS011;9118;48.122;11.546;2023-02-15T12:43:00;28.43;;;19.97;;
17985;SDS011;9118;48.122;11.546;2023-02-15T12:45:34;38.87;;;20.47;;
17985;SDS011;9118;48.122;11.546;2023-02-15T12:48:28;34.13;;;20.43;;
17985;SDS011;9118;48.122;11.546;2023-02-15T12:51:06;34.23;;;20.73;;
17985;SDS011;9118;48.122;11.546;2023-02-15T12:53:40;31.80;;;20.43;;
17985;SDS011;9118;48.122;11.546;2023-02-15T12:56:13;39.57;;;19.83;;
17985;SDS011;9118;48.122;11.546;2023-02-15T12:59:14;35.40;;;20.37;;
17985;SDS011;9118;48.122;11.546;2023-02-15T13:04:46;32.97;;;19.83;;
17985;SDS011;9118;48.122;11.546;2023-02-15T13:07:19;27.93;;;19.13;;
17985;SDS011;9118;48.122;11.546;2023-02-15T13:09:47;26.60;;;18.63;;
17985;SDS011;9118;48.122;11.546;2023-02-15T13:12:18;30.40;;;19.60;;
17985;SDS011;9118;48.122;11.546;2023-02-15T13:14:49;34.33;;;19.97;;
17985;SDS011;9118;48.122;11.546;2023-02-15T13:17:19;28.43;;;19.40;;
17985;SDS011;9118;48.122;11.546;2023-02-15T13:19:54;30.13;;;20.10;;
17985;SDS011;9118;48.122;11.546;2023-02-15T13:22:27;33.03;;;19.57;;
17985;SDS011;9118;48.122;11.546;2023-02-15T13:25:01;29.47;;;18.50;;
17985;SDS011;9118;48.122;11.546;2023-02-15T13:27:34;28.90;;;19.00;;
17985;SDS011;9118;48.122;11.546;2023-02-15T13:30:03;27.87;;;17.97;;
17985;SDS011;9118;48.122;11.546;2023-02-15T13:32:46;29.33;;;19.10;;
17985;SDS011;9118;48.122;11.546;2023-02-15T13:35:17;34.03;;;18.70;;
17985;SDS011;9118;48.122;11.546;2023-02-15T13:37:50;32.47;;;18.77;;
17985;SDS011;9118;48.122;11.546;2023-02-15T13:40:30;26.37;;;18.17;;
17985;SDS011;9118;48.122;11.546;2023-02-15T13:43:05;27.03;;;18.90;;
17985;SDS011;9118;48.122;11.546;2023-02-15T13:45:43;30.10;;;18.10;;
17985;SDS011;9118;48.122;11.546;2023-02-15T13:48:23;30.07;;;18.03;;
17985;SDS011;9118;48.122;11.546;2023-02-15T13:51:04;31.53;;;19.47;;
17985;SDS011;9118;48.122;11.546;2023-02-15T13:53:48;29.90;;;18.63;;
17985;SDS011;9118;48.122;11.546;2023-02-15T13:56:27;25.83;;;17.87;;
17985;SDS011;9118;48.122;11.546;2023-02-15T13:59:30;32.30;;;20.73;;
17985;SDS011;9118;48.122;11.546;2023-02-15T14:02:46;31.23;;;19.27;;
17985;SDS011;9118;48.122;11.546;2023-02-15T14:05:38;29.73;;;19.20;;
17985;SDS011;9118;48.122;11.546;2023-02-15T14:08:43;28.57;;;18.17;;
17985;SDS011;9118;48.122;11.546;2023-02-15T14:11:21;28.57;;;17.67;;
17985;SDS011;9118;48.122;11.546;2023-02-15T14:17:03;30.47;;;19.37;;
17985;SDS011;9118;48.122;11.546;2023-02-15T14:19:58;26.20;;;16.67;;
17985;SDS011;9118;48.122;11.546;2023-02-15T14:22:31;26.90;;;17.33;;
17985;SDS011;9118;48.122;11.546;2023-02-15T14:25:15;28.30;;;16.97;;
17985;SDS011;9118;48.122;11.546;2023-02-15T14:27:51;25.53;;;16.93;;
17985;SDS011;9118;48.122;11.546;2023-02-15T14:30:28;25.90;;;16.70;;
17985;SDS011;9118;48.122;11.546;2023-02-15T14:32:59;26.17;;;16.63;;
17985;SDS011;9118;48.122;11.546;2023-02-15T14:35:30;27.47;;;17.23;;
17985;SDS011;9118;48.122;11.546;2023-02-15T14:37:58;35.80;;;18.50;;
17985;SDS011;9118;48.122;11.546;2023-02-15T14:40:34;32.90;;;16.77;;
17985;SDS011;9118;48.122;11.546;2023-02-15T14:46:27;27.80;;;16.83;;
17985;SDS011;9118;48.122;11.546;2023-02-15T14:49:08;28.90;;;17.57;;
17985;SDS011;9118;48.122;11.546;2023-02-15T14:57:24;25.93;;;17.30;;
17985;SDS011;9118;48.122;11.546;2023-02-15T14:59:55;29.80;;;18.60;;
17985;SDS011;9118;48.122;11.546;2023-02-15T15:02:30;28.33;;;16.97;;
17985;SDS011;9118;48.122;11.546;2023-02-15T15:05:09;31.87;;;19.00;;
17985;SDS011;9118;48.122;11.546;2023-02-15T15:07:42;33.37;;;18.10;;
17985;SDS011;9118;48.122;11.546;2023-02-15T15:22:31;31.30;;;19.93;;
17985;SDS011;9118;48.122;11.546;2023-02-15T15:25:02;34.20;;;18.40;;
17985;SDS011;9118;48.122;11.546;2023-02-15T15:27:39;30.97;;;17.33;;